createdAt,value
2022-11-24T00:01:59.617Z,41.00
2022-11-24T00:04:27.731Z,38.20
2022-11-24T00:06:55.807Z,38.10
2022-11-24T00:09:24.059Z,33.90
2022-11-24T00:11:52.152Z,46.90
2022-11-24T00:14:20.539Z,41.80
2022-11-24T00:16:48.722Z,40.00
2022-11-24T00:19:19.768Z,42.60
2022-11-24T00:21:48.126Z,39.70
2022-11-24T00:24:16.201Z,38.20
2022-11-24T00:26:44.370Z,34.10
2022-11-24T00:29:12.545Z,41.70
2022-11-24T00:31:41.437Z,33.10
2022-11-24T00:34:14.139Z,34.90
2022-11-24T00:36:42.698Z,41.60
2022-11-24T00:39:12.210Z,36.90
2022-11-24T00:41:40.581Z,38.10
2022-11-24T00:44:08.756Z,38.70
2022-11-24T00:46:37.509Z,35.50
2022-11-24T00:49:06.048Z,43.90
2022-11-24T00:51:34.204Z,42.80
2022-11-24T00:54:02.590Z,35.80
2022-11-24T00:56:30.855Z,36.00
2022-11-24T00:58:58.924Z,34.20
2022-11-24T01:01:28.579Z,43.20
2022-11-24T01:03:57.120Z,38.20
2022-11-24T01:06:26.219Z,43.30
2022-11-24T01:08:54.589Z,41.50
2022-11-24T01:11:50.517Z,34.60
2022-11-24T01:14:18.687Z,42.50
2022-11-24T01:16:46.863Z,41.10
2022-11-24T01:19:15.393Z,37.30
2022-11-24T01:21:43.518Z,40.40
2022-11-24T01:24:11.818Z,38.20
2022-11-24T01:26:39.966Z,35.70
2022-11-24T01:29:08.141Z,42.40
2022-11-24T01:31:37.287Z,38.60
2022-11-24T01:34:05.425Z,34.30
2022-11-24T01:36:34.097Z,32.10
2022-11-24T01:39:02.372Z,41.80
2022-11-24T01:41:30.444Z,41.50
2022-11-24T01:43:58.533Z,42.50
2022-11-24T01:46:29.666Z,41.30
2022-11-24T01:49:18.335Z,39.40
2022-11-24T01:51:49.660Z,39.20
2022-11-24T01:54:22.241Z,41.60
2022-11-24T01:56:53.893Z,37.80
2022-11-24T01:59:23.194Z,38.80
2022-11-24T02:01:51.871Z,34.70
2022-11-24T02:04:24.457Z,28.50
2022-11-24T02:06:53.044Z,33.10
2022-11-24T02:09:26.980Z,43.20
2022-11-24T02:11:55.534Z,40.20
2022-11-24T02:14:24.275Z,39.70
2022-11-24T02:16:53.439Z,38.60
2022-11-24T02:19:21.486Z,39.00
2022-11-24T02:21:49.556Z,36.70
2022-11-24T02:24:29.606Z,36.90
2022-11-24T02:26:57.890Z,32.50
2022-11-24T02:29:25.961Z,37.90
2022-11-24T02:31:59.538Z,28.00
2022-11-24T02:34:27.972Z,31.60
2022-11-24T02:36:56.022Z,39.00
2022-11-24T02:48:36.944Z,37.40
2022-11-24T02:51:03.686Z,32.90
2022-11-24T02:53:30.422Z,38.30
2022-11-24T02:55:57.163Z,31.80
2022-11-24T02:58:23.802Z,33.50
2022-11-24T03:00:53.700Z,34.30
2022-11-24T03:03:24.041Z,38.80
2022-11-24T03:05:50.780Z,37.00
2022-11-24T03:08:17.624Z,37.90
2022-11-24T03:10:44.674Z,32.90
2022-11-24T03:13:11.315Z,28.60
2022-11-24T03:15:38.055Z,31.50
2022-11-24T03:18:04.902Z,31.40
2022-11-24T03:20:31.639Z,37.80
2022-11-24T03:22:58.475Z,38.30
2022-11-24T03:25:25.418Z,36.50
2022-11-24T03:27:52.884Z,34.70
2022-11-24T03:30:19.616Z,35.00
2022-11-24T03:32:46.360Z,36.00
2022-11-24T03:35:12.995Z,27.00
2022-11-24T03:37:39.634Z,35.60
2022-11-24T03:40:06.649Z,36.00
2022-11-24T03:42:33.318Z,37.30
2022-11-24T03:45:16.762Z,39.40
2022-11-24T03:47:49.740Z,32.20
2022-11-24T03:50:16.682Z,32.10
2022-11-24T03:52:43.324Z,31.60
2022-11-24T03:55:10.164Z,34.70
2022-11-24T03:57:36.905Z,32.20
2022-11-24T04:00:05.796Z,38.90
2022-11-24T04:02:32.609Z,36.90
2022-11-24T04:04:59.279Z,38.20
2022-11-24T04:07:25.950Z,37.00
2022-11-24T04:09:52.856Z,35.30
2022-11-24T04:12:38.248Z,37.50
2022-11-24T04:15:05.215Z,30.20
2022-11-24T04:21:07.374Z,37.30
2022-11-24T04:23:34.008Z,28.40
2022-11-24T04:26:00.751Z,37.10
2022-11-24T04:28:27.413Z,35.60
2022-11-24T04:30:54.207Z,27.70
2022-11-24T04:33:20.832Z,30.00
2022-11-24T04:35:47.541Z,33.50
2022-11-24T04:38:14.249Z,38.80
2022-11-24T04:41:04.439Z,36.00
2022-11-24T04:43:34.160Z,38.40
2022-11-24T04:46:04.531Z,35.40
2022-11-24T04:48:31.161Z,37.70
2022-11-24T04:50:57.849Z,36.50
2022-11-24T04:53:24.495Z,36.60
2022-11-24T04:55:51.123Z,36.70
2022-11-24T04:58:18.072Z,36.80
2022-11-24T05:00:44.811Z,30.90
2022-11-24T05:03:11.456Z,37.30
2022-11-24T05:05:38.089Z,36.30
2022-11-24T05:08:04.863Z,34.10
2022-11-24T05:10:34.631Z,36.30
2022-11-24T05:13:06.432Z,34.80
2022-11-24T05:15:33.232Z,34.20
2022-11-24T05:17:59.767Z,36.70
2022-11-24T05:20:26.404Z,35.30
2022-11-24T05:22:53.049Z,27.20
2022-11-24T05:25:20.092Z,27.70
2022-11-24T05:27:46.832Z,28.30
2022-11-24T05:30:13.575Z,40.30
2022-11-24T05:32:40.420Z,25.40
2022-11-24T05:35:09.233Z,32.00
2022-11-24T05:37:36.249Z,34.30
2022-11-24T05:40:03.520Z,35.80
2022-11-24T05:42:46.583Z,28.70
2022-11-24T05:45:16.239Z,34.70
2022-11-24T05:47:43.078Z,30.70
2022-11-24T05:50:10.839Z,26.50
2022-11-24T05:52:37.412Z,31.10
2022-11-24T05:57:56.591Z,36.90
2022-11-24T06:00:23.059Z,30.90
2022-11-24T06:02:49.572Z,34.40
2022-11-24T06:05:16.365Z,29.00
2022-11-24T06:07:43.738Z,29.80
2022-11-24T06:10:10.227Z,27.70
2022-11-24T06:12:36.567Z,28.40
2022-11-24T06:15:03.226Z,28.70
2022-11-24T06:17:29.758Z,32.30
2022-11-24T06:19:56.108Z,37.00
2022-11-24T06:22:22.567Z,41.60
2022-11-24T06:24:50.189Z,29.80
2022-11-24T06:27:16.927Z,35.40
2022-11-24T06:40:04.416Z,31.20
2022-11-24T06:43:22.607Z,34.20
2022-11-24T06:57:22.666Z,37.60
2022-11-24T06:59:49.090Z,34.70
2022-11-24T07:02:15.626Z,28.50
2022-11-24T07:04:42.139Z,24.90
2022-11-24T07:07:08.598Z,39.80
2022-11-24T07:09:35.005Z,32.90
2022-11-24T07:12:01.829Z,38.80
2022-11-24T07:14:28.615Z,38.00
2022-11-24T07:16:55.183Z,41.30
2022-11-24T07:19:24.847Z,37.60
2022-11-24T07:21:51.804Z,35.50
2022-11-24T07:24:18.224Z,31.10
2022-11-24T07:26:44.769Z,41.10
2022-11-24T07:29:11.241Z,29.00
2022-11-24T07:31:37.682Z,39.30
2022-11-24T07:34:04.481Z,34.60
2022-11-24T07:36:30.859Z,39.50
2022-11-24T07:38:57.347Z,41.40
2022-11-24T07:41:23.789Z,32.60
2022-11-24T07:43:51.135Z,34.20
2022-11-24T07:46:19.125Z,33.30
2022-11-24T07:48:46.047Z,31.90
2022-11-24T07:51:12.826Z,39.20
2022-11-24T07:53:39.324Z,37.90
2022-11-24T07:56:06.576Z,39.30
2022-11-24T07:58:35.495Z,45.80
2022-11-24T08:01:12.545Z,38.00
2022-11-24T08:03:39.391Z,30.20
2022-11-24T08:08:52.361Z,34.30
2022-11-24T08:11:19.074Z,35.90
2022-11-24T08:13:45.606Z,36.50
2022-11-24T08:16:13.336Z,37.80
2022-11-24T08:18:40.312Z,31.90
2022-11-24T08:21:07.954Z,35.20
2022-11-24T08:23:34.614Z,36.10
2022-11-24T08:26:10.092Z,34.60
2022-11-24T08:28:37.718Z,31.30
2022-11-24T08:31:08.784Z,35.20
2022-11-24T08:36:04.948Z,31.00
2022-11-24T08:38:31.413Z,34.50
2022-11-24T08:41:04.987Z,40.20
2022-11-24T08:43:31.440Z,35.10
2022-11-24T08:46:05.655Z,30.80
2022-11-24T08:48:32.366Z,30.00
2022-11-24T08:50:59.244Z,32.00
2022-11-24T08:53:25.906Z,36.40
2022-11-24T08:55:52.340Z,33.10
2022-11-24T08:58:18.743Z,32.10
2022-11-24T09:00:45.413Z,34.40
2022-11-24T09:03:11.931Z,35.80
2022-11-24T09:05:53.710Z,33.10
2022-11-24T09:08:20.232Z,31.60
2022-11-24T09:10:46.823Z,33.80
2022-11-24T09:13:13.456Z,36.30
2022-11-24T09:15:40.291Z,34.40
2022-11-24T09:18:06.828Z,36.30
2022-11-24T09:20:33.158Z,32.50
2022-11-24T09:22:59.741Z,36.80
2022-11-24T09:25:26.584Z,36.30
2022-11-24T09:27:53.991Z,36.30
2022-11-24T09:30:20.431Z,33.40
2022-11-24T09:32:46.805Z,35.00
2022-11-24T09:35:13.220Z,35.20
2022-11-24T09:37:39.826Z,34.80
2022-11-24T09:40:07.081Z,43.60
2022-11-24T09:42:33.411Z,29.30
2022-11-24T09:45:41.567Z,33.00
2022-11-24T09:48:13.174Z,37.10
2022-11-24T09:50:39.715Z,37.20
2022-11-24T09:53:18.638Z,35.20
2022-11-24T09:55:48.182Z,31.10
2022-11-24T09:58:30.037Z,35.10
2022-11-24T10:00:57.560Z,32.90
2022-11-24T10:03:31.022Z,30.50
2022-11-24T10:05:58.808Z,32.60
2022-11-24T10:08:25.293Z,24.80
2022-11-24T10:10:56.844Z,28.40
2022-11-24T10:13:34.270Z,32.30
2022-11-24T10:16:11.103Z,32.90
2022-11-24T10:18:56.924Z,36.80
2022-11-24T10:21:36.653Z,33.00
2022-11-24T10:24:18.441Z,24.70
2022-11-24T10:26:50.114Z,28.70
2022-11-24T10:29:16.456Z,29.30
2022-11-24T10:31:44.032Z,29.20
2022-11-24T10:34:15.580Z,28.80
2022-11-24T10:36:42.173Z,27.60
2022-11-24T10:39:21.119Z,25.50
2022-11-24T10:41:50.809Z,23.80
2022-11-24T10:44:17.450Z,25.10
2022-11-24T10:46:44.025Z,23.60
2022-11-24T10:49:31.057Z,24.20
2022-11-24T10:52:14.327Z,23.00
2022-11-24T10:55:00.328Z,24.90
2022-11-24T10:57:34.504Z,24.00
2022-11-24T11:00:02.016Z,24.50
2022-11-24T11:02:29.315Z,28.20
2022-11-24T11:04:56.118Z,27.70
2022-11-24T11:07:24.740Z,36.20
2022-11-24T11:10:11.277Z,60.60
2022-11-24T11:12:45.343Z,32.30
2022-11-24T11:15:23.116Z,24.00
2022-11-24T11:17:51.700Z,22.60
2022-11-24T11:20:20.669Z,23.90
2022-11-24T11:22:47.710Z,26.30
2022-11-24T11:25:14.080Z,29.80
2022-11-24T11:27:41.398Z,23.70
2022-11-24T11:36:10.634Z,36.80
2022-11-24T11:38:37.991Z,35.00
2022-11-24T11:41:05.343Z,32.30
2022-11-24T11:43:35.053Z,35.10
2022-11-24T11:46:01.522Z,37.30
2022-11-24T11:48:35.206Z,33.00
2022-11-24T11:51:28.065Z,31.70
2022-11-24T11:54:13.432Z,36.90
2022-11-24T11:56:47.686Z,33.70
2022-11-24T11:59:23.000Z,53.00
2022-11-24T12:01:55.688Z,40.60
2022-11-24T12:04:41.034Z,54.30
2022-11-24T12:07:26.239Z,40.50
2022-11-24T12:10:02.077Z,29.50
2022-11-24T12:12:47.668Z,33.60
2022-11-24T12:15:20.216Z,28.50
2022-11-24T12:17:58.922Z,26.70
2022-11-24T12:20:25.426Z,27.20
2022-11-24T12:22:58.255Z,27.30
2022-11-24T12:25:35.533Z,27.40
2022-11-24T12:28:34.545Z,29.60
2022-11-24T12:31:01.190Z,32.80
2022-11-24T12:33:34.067Z,28.90
2022-11-24T12:36:03.799Z,25.90
2022-11-24T12:38:40.203Z,19.70
2022-11-24T12:41:41.763Z,23.60
2022-11-24T12:44:16.854Z,18.40
2022-11-24T12:46:56.421Z,28.60
2022-11-24T12:49:26.594Z,28.70
2022-11-24T12:51:56.271Z,29.50
2022-11-24T12:54:23.144Z,33.00
2022-11-24T12:56:57.574Z,38.70
2022-11-24T12:59:27.073Z,32.30
2022-11-24T13:02:10.490Z,32.00
2022-11-24T13:04:40.476Z,28.70
2022-11-24T13:07:12.589Z,34.70
2022-11-24T13:09:58.991Z,24.00
2022-11-24T13:12:25.404Z,21.10
2022-11-24T13:14:51.828Z,18.70
2022-11-24T13:17:31.121Z,20.70
2022-11-24T13:20:18.176Z,27.90
2022-11-24T13:22:49.237Z,22.30
2022-11-24T13:25:18.372Z,22.80
2022-11-24T13:27:48.968Z,24.30
2022-11-24T13:30:33.830Z,25.50
2022-11-24T13:33:16.416Z,22.20
2022-11-24T13:36:02.136Z,24.10
2022-11-24T13:38:50.274Z,21.90
2022-11-24T13:41:34.948Z,21.90
2022-11-24T13:44:16.758Z,27.30
2022-11-24T13:47:06.371Z,32.90
2022-11-24T13:49:40.824Z,26.50
2022-11-24T13:52:26.105Z,27.60
2022-11-24T13:54:52.567Z,29.00
2022-11-24T13:57:35.755Z,31.40
2022-11-24T14:00:03.423Z,25.50
2022-11-24T14:02:33.856Z,22.60
2022-11-24T14:05:00.489Z,22.40
2022-11-24T14:07:28.124Z,27.00
2022-11-24T14:09:54.820Z,28.40
2022-11-24T14:12:25.407Z,32.40
2022-11-24T14:14:54.925Z,37.80
2022-11-24T14:17:22.217Z,39.40
2022-11-24T14:19:49.854Z,41.20
2022-11-24T14:22:26.202Z,66.30
2022-11-24T14:24:53.864Z,59.90
2022-11-24T14:27:24.032Z,55.00
2022-11-24T14:29:55.152Z,52.20
2022-11-24T14:32:21.667Z,42.30
2022-11-24T14:34:48.476Z,52.60
2022-11-24T14:37:14.960Z,44.90
2022-11-24T14:39:41.758Z,56.20
2022-11-24T14:42:17.224Z,74.70
2022-11-24T14:44:48.921Z,66.20
2022-11-24T14:47:41.633Z,67.30
2022-11-24T14:50:10.961Z,57.80
2022-11-24T14:52:43.099Z,55.60
2022-11-24T14:55:23.320Z,47.10
2022-11-24T14:57:49.861Z,36.60
2022-11-24T15:00:19.548Z,43.10
2022-11-24T15:02:52.836Z,20.60
2022-11-24T15:05:20.664Z,21.80
2022-11-24T15:07:48.309Z,56.40
2022-11-24T15:10:24.825Z,63.70
2022-11-24T15:12:56.546Z,47.80
2022-11-24T15:15:25.567Z,51.40
2022-11-24T15:17:54.228Z,46.80
2022-11-24T15:20:20.768Z,40.40
2022-11-24T15:22:48.836Z,43.40
2022-11-24T15:25:29.010Z,39.20
2022-11-24T15:27:55.709Z,40.60
2022-11-24T15:30:22.673Z,40.70
2022-11-24T15:32:50.288Z,60.80
2022-11-24T15:35:16.868Z,70.10
2022-11-24T15:37:43.746Z,214.50
2022-11-24T15:40:10.714Z,96.10
2022-11-24T15:42:37.116Z,61.40
2022-11-24T15:45:04.239Z,130.70
2022-11-24T15:47:30.672Z,139.20
2022-11-24T15:49:57.225Z,83.70
2022-11-24T15:52:23.762Z,84.50
2022-11-24T15:54:52.663Z,70.40
2022-11-24T15:57:19.591Z,198.00
2022-11-24T15:59:45.975Z,71.10
2022-11-24T16:02:12.500Z,85.60
2022-11-24T16:04:41.136Z,160.90
2022-11-24T16:07:13.974Z,272.20
2022-11-24T16:09:40.656Z,144.90
2022-11-24T16:12:07.824Z,249.30
2022-11-24T16:14:35.128Z,118.70
2022-11-24T16:17:02.002Z,100.70
2022-11-24T16:19:28.746Z,95.90
2022-11-24T16:21:55.174Z,89.00
2022-11-24T16:24:21.624Z,107.20
2022-11-24T16:26:47.990Z,95.80
2022-11-24T16:29:14.506Z,84.40
2022-11-24T16:31:42.945Z,74.00
2022-11-24T16:34:09.495Z,72.60
2022-11-24T16:36:35.837Z,68.80
2022-11-24T16:39:02.473Z,57.00
2022-11-24T16:41:28.994Z,70.60
2022-11-24T16:43:55.974Z,76.50
2022-11-24T16:46:23.964Z,63.60
2022-11-24T16:48:51.779Z,59.10
2022-11-24T16:51:19.644Z,57.70
2022-11-24T16:53:46.385Z,79.90
2022-11-24T16:56:14.253Z,55.10
2022-11-24T16:58:40.711Z,60.10
2022-11-24T17:01:08.504Z,63.00
2022-11-24T17:03:38.160Z,55.10
2022-11-24T17:06:09.302Z,50.50
2022-11-24T17:08:37.060Z,88.00
2022-11-24T17:11:07.087Z,90.30
2022-11-24T17:13:33.818Z,70.30
2022-11-24T17:16:04.292Z,64.90
2022-11-24T17:18:30.942Z,67.60
2022-11-24T17:20:58.343Z,63.70
2022-11-24T17:23:24.902Z,65.00
2022-11-24T17:25:51.414Z,54.30
2022-11-24T17:28:18.156Z,49.10
2022-11-24T17:30:44.944Z,55.40
2022-11-24T17:33:11.380Z,61.60
2022-11-24T17:35:37.859Z,54.50
2022-11-24T17:38:04.514Z,48.30
2022-11-24T17:40:30.949Z,51.40
2022-11-24T17:42:59.067Z,42.80
2022-11-24T17:45:26.511Z,41.20
2022-11-24T17:47:53.001Z,39.20
2022-11-24T17:50:25.222Z,43.40
2022-11-24T17:52:53.484Z,65.10
2022-11-24T17:55:20.182Z,32.60
2022-11-24T17:57:46.630Z,28.90
2022-11-24T18:00:13.460Z,34.00
2022-11-24T18:02:40.139Z,34.70
2022-11-24T18:05:07.038Z,33.60
2022-11-24T18:07:36.692Z,30.50
2022-11-24T18:10:03.619Z,29.30
2022-11-24T18:12:30.064Z,35.60
2022-11-24T18:14:56.739Z,51.80
2022-11-24T18:17:23.237Z,39.70
2022-11-24T18:19:49.712Z,29.00
2022-11-24T18:22:16.168Z,34.40
2022-11-24T18:24:42.533Z,37.90
2022-11-24T18:27:08.915Z,45.30
2022-11-24T18:29:35.270Z,101.20
2022-11-24T18:32:01.823Z,70.60
2022-11-24T18:34:28.321Z,75.80
2022-11-24T18:36:54.846Z,72.20
2022-11-24T18:39:21.510Z,62.50
2022-11-24T18:41:47.994Z,50.50
2022-11-24T18:44:14.577Z,60.70
2022-11-24T18:46:41.226Z,67.10
2022-11-24T18:49:07.701Z,113.10
2022-11-24T18:51:34.565Z,126.10
2022-11-24T18:54:02.582Z,108.60
2022-11-24T18:56:29.612Z,107.40
2022-11-24T18:58:56.579Z,97.30
2022-11-24T19:01:24.494Z,107.40
2022-11-24T19:03:52.493Z,112.10
2022-11-24T19:06:20.099Z,93.70
2022-11-24T19:08:46.824Z,84.60
2022-11-24T19:11:21.013Z,107.60
2022-11-24T19:13:48.450Z,101.00
2022-11-24T19:16:17.434Z,91.60
2022-11-24T19:18:47.645Z,183.80
2022-11-24T19:21:18.927Z,99.00
2022-11-24T19:23:45.464Z,61.20
2022-11-24T19:26:12.121Z,50.10
2022-11-24T19:28:38.598Z,57.10
2022-11-24T19:31:06.721Z,60.10
2022-11-24T19:33:33.650Z,88.20
2022-11-24T19:36:04.270Z,69.50
2022-11-24T19:38:32.251Z,60.70
2022-11-24T19:40:59.769Z,76.50
2022-11-24T19:43:26.324Z,78.00
2022-11-24T19:45:53.030Z,71.10
2022-11-24T19:48:19.508Z,97.70
2022-11-24T19:50:46.055Z,88.40
2022-11-24T19:53:12.490Z,94.00
2022-11-24T19:55:39.030Z,92.70
2022-11-24T19:58:05.463Z,97.60
2022-11-24T20:00:32.178Z,74.40
2022-11-24T20:02:58.825Z,71.00
2022-11-24T20:05:25.679Z,74.60
2022-11-24T20:07:52.203Z,84.90
2022-11-24T20:10:18.649Z,57.50
2022-11-24T20:12:45.136Z,39.00
2022-11-24T20:15:11.620Z,62.70
2022-11-24T20:17:38.155Z,64.70
2022-11-24T20:20:05.047Z,52.40
2022-11-24T20:22:32.529Z,31.20
2022-11-24T20:24:59.004Z,27.70
2022-11-24T20:27:25.427Z,37.00
2022-11-24T20:29:51.954Z,38.40
2022-11-24T20:32:19.931Z,50.30
2022-11-24T20:34:46.561Z,45.60
2022-11-24T20:37:13.340Z,49.60
2022-11-24T20:39:39.882Z,49.80
2022-11-24T20:42:06.840Z,51.30
2022-11-24T20:44:33.576Z,48.00
2022-11-24T20:47:02.265Z,41.50
2022-11-24T20:49:28.774Z,50.40
2022-11-24T20:51:56.533Z,48.20
2022-11-24T20:54:23.145Z,53.60
2022-11-24T20:56:49.697Z,52.10
2022-11-24T20:59:20.695Z,47.90
2022-11-24T21:01:48.108Z,53.30
2022-11-24T21:04:19.631Z,54.20
2022-11-24T21:06:46.389Z,55.00
2022-11-24T21:09:12.804Z,64.30
2022-11-24T21:11:39.489Z,66.70
2022-11-24T21:14:06.797Z,67.30
2022-11-24T21:16:34.591Z,56.00
2022-11-24T21:19:02.739Z,64.60
2022-11-24T21:21:34.075Z,50.50
2022-11-24T21:24:05.433Z,45.20
2022-11-24T21:28:58.304Z,43.30
2022-11-24T21:31:24.874Z,43.90
2022-11-24T21:33:52.209Z,41.10
2022-11-24T21:36:19.958Z,37.00
2022-11-24T21:38:50.357Z,53.30
2022-11-24T21:41:17.205Z,41.40
2022-11-24T21:43:43.581Z,38.50
2022-11-24T21:46:10.736Z,33.50
2022-11-24T21:48:37.896Z,42.30
2022-11-24T21:51:05.414Z,41.40
2022-11-24T21:53:33.408Z,42.40
2022-11-24T21:56:01.208Z,61.70
2022-11-24T21:58:28.066Z,62.40
2022-11-24T22:00:54.811Z,52.40
2022-11-24T22:03:21.298Z,52.20
2022-11-24T22:05:54.570Z,48.50
2022-11-24T22:08:21.501Z,45.40
2022-11-24T22:10:48.032Z,42.00
2022-11-24T22:13:14.515Z,47.90
2022-11-24T22:15:41.006Z,40.60
2022-11-24T22:18:07.542Z,40.10
2022-11-24T22:20:34.897Z,38.30
2022-11-24T22:23:01.535Z,32.60
2022-11-24T22:25:27.967Z,28.10
2022-11-24T22:27:54.365Z,28.60
2022-11-24T22:30:20.833Z,26.40
2022-11-24T22:32:47.190Z,26.80
2022-11-24T22:35:13.705Z,26.00
2022-11-24T22:37:40.133Z,24.10
2022-11-24T22:40:07.013Z,25.70
2022-11-24T22:42:33.513Z,23.80
2022-11-24T22:44:59.893Z,23.60
2022-11-24T22:47:26.289Z,23.20
2022-11-24T22:49:52.731Z,21.80
2022-11-24T22:52:19.141Z,23.30
2022-11-24T22:54:45.558Z,22.80
2022-11-24T22:57:11.997Z,24.10
2022-11-24T22:59:38.544Z,26.60
2022-11-24T23:02:08.128Z,25.40
2022-11-24T23:04:37.288Z,22.40
2022-11-24T23:07:03.987Z,27.20
2022-11-24T23:09:30.418Z,22.90
2022-11-24T23:11:56.842Z,23.10
2022-11-24T23:14:23.809Z,22.50
2022-11-24T23:16:50.280Z,21.50
2022-11-24T23:19:17.344Z,24.20
2022-11-24T23:21:43.722Z,22.80
2022-11-24T23:24:10.571Z,20.50
2022-11-24T23:26:38.274Z,21.60
2022-11-24T23:29:05.115Z,21.60
2022-11-24T23:31:31.638Z,21.20
2022-11-24T23:33:59.110Z,22.30
2022-11-24T23:36:25.920Z,21.00
2022-11-24T23:38:52.445Z,20.30
2022-11-24T23:41:20.322Z,20.30
2022-11-24T23:43:46.838Z,21.50
2022-11-24T23:46:14.609Z,22.50
2022-11-24T23:48:41.668Z,22.90
2022-11-24T23:51:08.079Z,21.50
2022-11-24T23:53:35.124Z,25.10
2022-11-24T23:56:01.885Z,27.10
2022-11-24T23:58:28.315Z,24.50
